sensor_id;sensor_type;location;lat;lon;timestamp;P1;durP1;ratioP1;P2;durP2;ratioP2
2480;SDS011;57396;48.742;9.128;2023-08-01T00:00:11;6.73;;;3.90;;
2480;SDS011;57396;48.742;9.128;2023-08-01T00:02:37;4.10;;;3.33;;
2480;SDS011;57396;48.742;9.128;2023-08-01T00:05:03;9.73;;;3.53;;
2480;SDS011;57396;48.742;9.128;2023-08-01T00:07:29;5.00;;;3.73;;
2480;SDS011;57396;48.742;9.128;2023-08-01T00:09:55;4.03;;;3.57;;
2480;SDS011;57396;48.742;9.128;2023-08-01T00:12:20;6.13;;;3.60;;
2480;SDS011;57396;48.742;9.128;2023-08-01T00:14:45;4.87;;;3.20;;
2480;SDS011;57396;48.742;9.128;2023-08-01T00:17:11;4.80;;;3.70;;
2480;SDS011;57396;48.742;9.128;2023-08-01T00:19:36;4.03;;;3.30;;
2480;SDS011;57396;48.742;9.128;2023-08-01T00:22:02;3.43;;;3.10;;
2480;SDS011;57396;48.742;9.128;2023-08-01T00:24:27;4.10;;;3.70;;
2480;SDS011;57396;48.742;9.128;2023-08-01T00:26:53;4.17;;;3.50;;
2480;SDS011;57396;48.742;9.128;2023-08-01T00:29:20;9.23;;;3.20;;
2480;SDS011;57396;48.742;9.128;2023-08-01T00:31:46;4.40;;;3.33;;
2480;SDS011;57396;48.742;9.128;2023-08-01T00:34:11;5.77;;;3.80;;
2480;SDS011;57396;48.742;9.128;2023-08-01T00:36:37;4.77;;;3.90;;
2480;SDS011;57396;48.742;9.128;2023-08-01T00:39:02;7.93;;;3.60;;
2480;SDS011;57396;48.742;9.128;2023-08-01T00:41:28;5.30;;;3.57;;
2480;SDS011;57396;48.742;9.128;2023-08-01T00:43:53;4.73;;;3.43;;
2480;SDS011;57396;48.742;9.128;2023-08-01T00:46:19;7.67;;;3.73;;
2480;SDS011;57396;48.742;9.128;2023-08-01T00:48:44;4.77;;;3.27;;
2480;SDS011;57396;48.742;9.128;2023-08-01T00:51:10;7.37;;;3.70;;
2480;SDS011;57396;48.742;9.128;2023-08-01T00:53:37;5.40;;;3.27;;
2480;SDS011;57396;48.742;9.128;2023-08-01T00:56:02;5.47;;;3.80;;
2480;SDS011;57396;48.742;9.128;2023-08-01T00:58:28;5.00;;;3.37;;
2480;SDS011;57396;48.742;9.128;2023-08-01T01:00:54;6.00;;;3.23;;
2480;SDS011;57396;48.742;9.128;2023-08-01T01:03:20;5.30;;;3.30;;
2480;SDS011;57396;48.742;9.128;2023-08-01T01:05:53;5.87;;;3.13;;
2480;SDS011;57396;48.742;9.128;2023-08-01T01:08:21;4.03;;;3.33;;
2480;SDS011;57396;48.742;9.128;2023-08-01T01:10:47;6.40;;;3.77;;
2480;SDS011;57396;48.742;9.128;2023-08-01T01:13:12;5.70;;;3.40;;
2480;SDS011;57396;48.742;9.128;2023-08-01T01:15:38;4.80;;;3.30;;
2480;SDS011;57396;48.742;9.128;2023-08-01T01:18:03;8.17;;;3.53;;
2480;SDS011;57396;48.742;9.128;2023-08-01T01:20:34;6.80;;;3.70;;
2480;SDS011;57396;48.742;9.128;2023-08-01T01:23:00;5.20;;;3.83;;
2480;SDS011;57396;48.742;9.128;2023-08-01T01:25:26;5.77;;;3.30;;
2480;SDS011;57396;48.742;9.128;2023-08-01T01:27:52;5.27;;;3.57;;
2480;SDS011;57396;48.742;9.128;2023-08-01T01:30:19;3.83;;;3.20;;
2480;SDS011;57396;48.742;9.128;2023-08-01T01:32:44;5.27;;;3.87;;
2480;SDS011;57396;48.742;9.128;2023-08-01T01:35:10;5.47;;;3.43;;
2480;SDS011;57396;48.742;9.128;2023-08-01T01:37:35;5.30;;;3.77;;
2480;SDS011;57396;48.742;9.128;2023-08-01T01:40:01;5.43;;;3.63;;
2480;SDS011;57396;48.742;9.128;2023-08-01T01:42:26;6.50;;;3.93;;
2480;SDS011;57396;48.742;9.128;2023-08-01T01:44:52;6.63;;;3.63;;
2480;SDS011;57396;48.742;9.128;2023-08-01T01:47:17;5.60;;;3.40;;
2480;SDS011;57396;48.742;9.128;2023-08-01T01:49:43;4.03;;;3.47;;
2480;SDS011;57396;48.742;9.128;2023-08-01T01:52:08;7.10;;;3.67;;
2480;SDS011;57396;48.742;9.128;2023-08-01T01:54:34;4.30;;;3.50;;
2480;SDS011;57396;48.742;9.128;2023-08-01T01:56:59;3.90;;;3.50;;
2480;SDS011;57396;48.742;9.128;2023-08-01T01:59:25;3.50;;;3.20;;
2480;SDS011;57396;48.742;9.128;2023-08-01T02:01:50;5.03;;;3.53;;
2480;SDS011;57396;48.742;9.128;2023-08-01T02:04:15;6.23;;;3.50;;
2480;SDS011;57396;48.742;9.128;2023-08-01T02:06:41;4.90;;;3.70;;
2480;SDS011;57396;48.742;9.128;2023-08-01T02:09:07;4.83;;;3.77;;
2480;SDS011;57396;48.742;9.128;2023-08-01T02:11:32;6.17;;;3.70;;
2480;SDS011;57396;48.742;9.128;2023-08-01T02:13:57;4.00;;;3.47;;
2480;SDS011;57396;48.742;9.128;2023-08-01T02:16:23;9.77;;;3.40;;
2480;SDS011;57396;48.742;9.128;2023-08-01T02:18:48;6.23;;;3.30;;
2480;SDS011;57396;48.742;9.128;2023-08-01T02:21:14;6.37;;;3.47;;
2480;SDS011;57396;48.742;9.128;2023-08-01T02:23:39;7.63;;;3.97;;
2480;SDS011;57396;48.742;9.128;2023-08-01T02:26:05;5.20;;;3.90;;
2480;SDS011;57396;48.742;9.128;2023-08-01T02:28:32;5.67;;;3.77;;
2480;SDS011;57396;48.742;9.128;2023-08-01T02:30:57;5.30;;;3.80;;
2480;SDS011;57396;48.742;9.128;2023-08-01T02:33:23;9.20;;;3.67;;
2480;SDS011;57396;48.742;9.128;2023-08-01T02:35:48;5.83;;;3.90;;
2480;SDS011;57396;48.742;9.128;2023-08-01T02:38:14;7.27;;;3.87;;
2480;SDS011;57396;48.742;9.128;2023-08-01T02:40:39;4.13;;;3.60;;
2480;SDS011;57396;48.742;9.128;2023-08-01T02:43:05;4.17;;;3.10;;
2480;SDS011;57396;48.742;9.128;2023-08-01T02:45:30;6.47;;;3.90;;
2480;SDS011;57396;48.742;9.128;2023-08-01T02:47:56;4.10;;;3.40;;
2480;SDS011;57396;48.742;9.128;2023-08-01T02:50:21;7.10;;;4.00;;
2480;SDS011;57396;48.742;9.128;2023-08-01T02:52:46;4.00;;;3.27;;
2480;SDS011;57396;48.742;9.128;2023-08-01T02:55:12;5.73;;;3.70;;
2480;SDS011;57396;48.742;9.128;2023-08-01T02:57:37;4.00;;;3.20;;
2480;SDS011;57396;48.742;9.128;2023-08-01T03:00:03;7.27;;;3.70;;
2480;SDS011;57396;48.742;9.128;2023-08-01T03:02:31;5.23;;;4.00;;
2480;SDS011;57396;48.742;9.128;2023-08-01T03:04:56;7.07;;;3.80;;
2480;SDS011;57396;48.742;9.128;2023-08-01T03:07:22;5.20;;;3.60;;
2480;SDS011;57396;48.742;9.128;2023-08-01T03:09:47;5.37;;;3.37;;
2480;SDS011;57396;48.742;9.128;2023-08-01T03:12:13;4.57;;;3.57;;
2480;SDS011;57396;48.742;9.128;2023-08-01T03:14:38;5.97;;;3.90;;
2480;SDS011;57396;48.742;9.128;2023-08-01T03:17:06;4.50;;;3.63;;
2480;SDS011;57396;48.742;9.128;2023-08-01T03:19:33;6.67;;;4.00;;
2480;SDS011;57396;48.742;9.128;2023-08-01T03:21:59;4.67;;;3.37;;
2480;SDS011;57396;48.742;9.128;2023-08-01T03:24:25;6.60;;;3.87;;
2480;SDS011;57396;48.742;9.128;2023-08-01T03:26:50;5.13;;;3.60;;
2480;SDS011;57396;48.742;9.128;2023-08-01T03:29:16;3.87;;;3.50;;
2480;SDS011;57396;48.742;9.128;2023-08-01T03:31:41;4.13;;;3.73;;
2480;SDS011;57396;48.742;9.128;2023-08-01T03:34:06;5.40;;;3.50;;
2480;SDS011;57396;48.742;9.128;2023-08-01T03:36:34;6.47;;;3.93;;
2480;SDS011;57396;48.742;9.128;2023-08-01T03:38:59;5.00;;;3.53;;
2480;SDS011;57396;48.742;9.128;2023-08-01T03:41:25;4.43;;;3.80;;
2480;SDS011;57396;48.742;9.128;2023-08-01T03:43:50;3.97;;;3.00;;
2480;SDS011;57396;48.742;9.128;2023-08-01T03:46:16;5.50;;;3.77;;
2480;SDS011;57396;48.742;9.128;2023-08-01T03:48:41;6.10;;;3.90;;
2480;SDS011;57396;48.742;9.128;2023-08-01T03:51:08;8.53;;;3.40;;
2480;SDS011;57396;48.742;9.128;2023-08-01T03:53:33;5.67;;;3.77;;
2480;SDS011;57396;48.742;9.128;2023-08-01T03:55:59;3.87;;;3.47;;
2480;SDS011;57396;48.742;9.128;2023-08-01T03:58:24;6.20;;;3.33;;
2480;SDS011;57396;48.742;9.128;2023-08-01T04:00:50;8.03;;;3.23;;
2480;SDS011;57396;48.742;9.128;2023-08-01T04:03:15;4.80;;;3.37;;
2480;SDS011;57396;48.742;9.128;2023-08-01T04:05:41;5.57;;;3.93;;
2480;SDS011;57396;48.742;9.128;2023-08-01T04:08:06;4.40;;;3.67;;
2480;SDS011;57396;48.742;9.128;2023-08-01T04:10:32;7.07;;;3.73;;
2480;SDS011;57396;48.742;9.128;2023-08-01T04:12:57;3.67;;;3.23;;
2480;SDS011;57396;48.742;9.128;2023-08-01T04:15:22;5.00;;;3.40;;
2480;SDS011;57396;48.742;9.128;2023-08-01T04:17:48;7.20;;;3.90;;
2480;SDS011;57396;48.742;9.128;2023-08-01T04:20:13;7.33;;;3.33;;
2480;SDS011;57396;48.742;9.128;2023-08-01T04:22:39;6.53;;;3.30;;
2480;SDS011;57396;48.742;9.128;2023-08-01T04:25:04;4.50;;;3.60;;
2480;SDS011;57396;48.742;9.128;2023-08-01T04:27:30;6.50;;;3.40;;
2480;SDS011;57396;48.742;9.128;2023-08-01T04:29:55;9.00;;;3.33;;
2480;SDS011;57396;48.742;9.128;2023-08-01T04:32:21;4.07;;;3.37;;
2480;SDS011;57396;48.742;9.128;2023-08-01T04:34:46;4.20;;;3.30;;
2480;SDS011;57396;48.742;9.128;2023-08-01T04:37:12;5.60;;;3.37;;
2480;SDS011;57396;48.742;9.128;2023-08-01T04:39:37;3.50;;;2.90;;
2480;SDS011;57396;48.742;9.128;2023-08-01T04:42:03;5.60;;;3.80;;
2480;SDS011;57396;48.742;9.128;2023-08-01T04:44:28;4.93;;;3.40;;
2480;SDS011;57396;48.742;9.128;2023-08-01T04:46:55;8.30;;;3.87;;
2480;SDS011;57396;48.742;9.128;2023-08-01T04:49:20;3.37;;;3.00;;
2480;SDS011;57396;48.742;9.128;2023-08-01T04:51:48;5.90;;;3.47;;
2480;SDS011;57396;48.742;9.128;2023-08-01T04:54:14;6.67;;;3.30;;
2480;SDS011;57396;48.742;9.128;2023-08-01T04:56:39;7.87;;;3.40;;
2480;SDS011;57396;48.742;9.128;2023-08-01T04:59:04;4.57;;;3.30;;
2480;SDS011;57396;48.742;9.128;2023-08-01T05:01:30;7.50;;;3.30;;
2480;SDS011;57396;48.742;9.128;2023-08-01T05:03:56;7.13;;;3.80;;
2480;SDS011;57396;48.742;9.128;2023-08-01T05:06:22;6.67;;;3.43;;
2480;SDS011;57396;48.742;9.128;2023-08-01T05:08:47;5.80;;;3.27;;
2480;SDS011;57396;48.742;9.128;2023-08-01T05:11:13;4.10;;;3.10;;
2480;SDS011;57396;48.742;9.128;2023-08-01T05:13:38;5.40;;;3.60;;
2480;SDS011;57396;48.742;9.128;2023-08-01T05:16:04;6.87;;;3.40;;
2480;SDS011;57396;48.742;9.128;2023-08-01T05:18:29;3.73;;;3.13;;
2480;SDS011;57396;48.742;9.128;2023-08-01T05:20:55;6.63;;;3.70;;
2480;SDS011;57396;48.742;9.128;2023-08-01T05:23:20;7.60;;;4.10;;
2480;SDS011;57396;48.742;9.128;2023-08-01T05:25:45;11.20;;;3.90;;
2480;SDS011;57396;48.742;9.128;2023-08-01T05:28:11;6.70;;;3.67;;
2480;SDS011;57396;48.742;9.128;2023-08-01T05:30:37;7.70;;;4.20;;
2480;SDS011;57396;48.742;9.128;2023-08-01T05:33:02;8.27;;;4.30;;
2480;SDS011;57396;48.742;9.128;2023-08-01T05:35:28;10.00;;;4.20;;
2480;SDS011;57396;48.742;9.128;2023-08-01T05:37:53;7.73;;;3.60;;
2480;SDS011;57396;48.742;9.128;2023-08-01T05:40:19;4.90;;;3.60;;
2480;SDS011;57396;48.742;9.128;2023-08-01T05:42:44;7.40;;;3.57;;
2480;SDS011;57396;48.742;9.128;2023-08-01T05:45:10;4.63;;;4.13;;
2480;SDS011;57396;48.742;9.128;2023-08-01T05:47:36;4.60;;;3.57;;
2480;SDS011;57396;48.742;9.128;2023-08-01T05:50:02;5.17;;;4.10;;
2480;SDS011;57396;48.742;9.128;2023-08-01T05:52:27;6.27;;;3.63;;
2480;SDS011;57396;48.742;9.128;2023-08-01T05:54:53;6.07;;;3.67;;
2480;SDS011;57396;48.742;9.128;2023-08-01T05:57:18;4.67;;;4.00;;
2480;SDS011;57396;48.742;9.128;2023-08-01T05:59:44;5.23;;;3.70;;
2480;SDS011;57396;48.742;9.128;2023-08-01T06:02:09;8.30;;;3.93;;
2480;SDS011;57396;48.742;9.128;2023-08-01T06:04:35;8.50;;;4.10;;
2480;SDS011;57396;48.742;9.128;2023-08-01T06:07:00;6.40;;;4.20;;
2480;SDS011;57396;48.742;9.128;2023-08-01T06:09:26;7.70;;;4.07;;
2480;SDS011;57396;48.742;9.128;2023-08-01T06:11:51;8.30;;;4.17;;
2480;SDS011;57396;48.742;9.128;2023-08-01T06:14:17;3.80;;;3.30;;
2480;SDS011;57396;48.742;9.128;2023-08-01T06:16:42;6.80;;;4.13;;
2480;SDS011;57396;48.742;9.128;2023-08-01T06:19:08;6.63;;;3.90;;
2480;SDS011;57396;48.742;9.128;2023-08-01T06:21:33;6.83;;;3.80;;
2480;SDS011;57396;48.742;9.128;2023-08-01T06:23:59;6.50;;;3.67;;
2480;SDS011;57396;48.742;9.128;2023-08-01T06:26:24;6.10;;;4.20;;
2480;SDS011;57396;48.742;9.128;2023-08-01T06:28:50;8.30;;;4.50;;
2480;SDS011;57396;48.742;9.128;2023-08-01T06:31:18;8.63;;;4.57;;
2480;SDS011;57396;48.742;9.128;2023-08-01T06:33:45;6.83;;;5.00;;
2480;SDS011;57396;48.742;9.128;2023-08-01T06:36:10;6.73;;;4.87;;
2480;SDS011;57396;48.742;9.128;2023-08-01T06:38:35;7.60;;;4.60;;
2480;SDS011;57396;48.742;9.128;2023-08-01T06:41:01;5.10;;;4.53;;
2480;SDS011;57396;48.742;9.128;2023-08-01T06:43:26;5.37;;;3.90;;
2480;SDS011;57396;48.742;9.128;2023-08-01T06:45:52;9.70;;;5.77;;
2480;SDS011;57396;48.742;9.128;2023-08-01T06:48:17;6.20;;;5.00;;
2480;SDS011;57396;48.742;9.128;2023-08-01T06:50:43;11.23;;;6.00;;
2480;SDS011;57396;48.742;9.128;2023-08-01T06:53:08;9.37;;;5.60;;
2480;SDS011;57396;48.742;9.128;2023-08-01T06:55:34;7.87;;;5.13;;
2480;SDS011;57396;48.742;9.128;2023-08-01T06:57:59;10.50;;;6.03;;
2480;SDS011;57396;48.742;9.128;2023-08-01T07:00:25;7.30;;;5.73;;
2480;SDS011;57396;48.742;9.128;2023-08-01T07:02:50;11.37;;;5.40;;
2480;SDS011;57396;48.742;9.128;2023-08-01T07:05:16;8.50;;;6.07;;
2480;SDS011;57396;48.742;9.128;2023-08-01T07:07:41;9.50;;;5.80;;
2480;SDS011;57396;48.742;9.128;2023-08-01T07:10:07;8.47;;;6.00;;
2480;SDS011;57396;48.742;9.128;2023-08-01T07:12:32;9.53;;;5.70;;
2480;SDS011;57396;48.742;9.128;2023-08-01T07:14:58;7.30;;;5.60;;
2480;SDS011;57396;48.742;9.128;2023-08-01T07:17:23;7.10;;;5.43;;
2480;SDS011;57396;48.742;9.128;2023-08-01T07:19:49;10.13;;;6.33;;
2480;SDS011;57396;48.742;9.128;2023-08-01T07:22:14;8.50;;;5.50;;
2480;SDS011;57396;48.742;9.128;2023-08-01T07:24:40;6.93;;;5.83;;
2480;SDS011;57396;48.742;9.128;2023-08-01T07:27:05;7.67;;;5.40;;
2480;SDS011;57396;48.742;9.128;2023-08-01T07:29:30;10.23;;;6.10;;
2480;SDS011;57396;48.742;9.128;2023-08-01T07:31:56;8.33;;;5.50;;
2480;SDS011;57396;48.742;9.128;2023-08-01T07:34:21;7.57;;;4.97;;
2480;SDS011;57396;48.742;9.128;2023-08-01T07:36:48;5.97;;;5.33;;
2480;SDS011;57396;48.742;9.128;2023-08-01T07:39:16;6.50;;;4.77;;
2480;SDS011;57396;48.742;9.128;2023-08-01T07:41:42;8.47;;;4.63;;
2480;SDS011;57396;48.742;9.128;2023-08-01T07:44:07;7.10;;;4.93;;
2480;SDS011;57396;48.742;9.128;2023-08-01T07:46:33;11.30;;;5.17;;
2480;SDS011;57396;48.742;9.128;2023-08-01T07:48:58;5.53;;;4.70;;
2480;SDS011;57396;48.742;9.128;2023-08-01T07:51:25;5.10;;;4.40;;
2480;SDS011;57396;48.742;9.128;2023-08-01T07:53:51;8.90;;;4.80;;
2480;SDS011;57396;48.742;9.128;2023-08-01T07:56:18;10.67;;;4.73;;
2480;SDS011;57396;48.742;9.128;2023-08-01T07:58:44;6.37;;;4.53;;
2480;SDS011;57396;48.742;9.128;2023-08-01T08:01:09;4.97;;;3.77;;
2480;SDS011;57396;48.742;9.128;2023-08-01T08:03:35;4.63;;;3.77;;
2480;SDS011;57396;48.742;9.128;2023-08-01T08:06:00;4.53;;;3.77;;
2480;SDS011;57396;48.742;9.128;2023-08-01T08:08:26;5.40;;;3.57;;
2480;SDS011;57396;48.742;9.128;2023-08-01T08:10:52;5.17;;;3.50;;
2480;SDS011;57396;48.742;9.128;2023-08-01T08:13:17;3.97;;;2.97;;
2480;SDS011;57396;48.742;9.128;2023-08-01T08:15:43;4.33;;;3.20;;
2480;SDS011;57396;48.742;9.128;2023-08-01T08:18:08;4.77;;;3.30;;
2480;SDS011;57396;48.742;9.128;2023-08-01T08:20:40;4.10;;;3.13;;
2480;SDS011;57396;48.742;9.128;2023-08-01T08:23:07;5.00;;;3.30;;
2480;SDS011;57396;48.742;9.128;2023-08-01T08:25:32;3.60;;;2.80;;
2480;SDS011;57396;48.742;9.128;2023-08-01T08:27:58;5.60;;;2.67;;
2480;SDS011;57396;48.742;9.128;2023-08-01T08:30:24;3.70;;;2.97;;
2480;SDS011;57396;48.742;9.128;2023-08-01T08:32:50;3.47;;;2.80;;
2480;SDS011;57396;48.742;9.128;2023-08-01T08:35:15;3.70;;;2.97;;
2480;SDS011;57396;48.742;9.128;2023-08-01T08:37:41;5.57;;;3.20;;
2480;SDS011;57396;48.742;9.128;2023-08-01T08:40:06;2.83;;;2.50;;
2480;SDS011;57396;48.742;9.128;2023-08-01T08:42:33;3.90;;;3.17;;
2480;SDS011;57396;48.742;9.128;2023-08-01T08:44:58;3.27;;;2.97;;
2480;SDS011;57396;48.742;9.128;2023-08-01T08:47:26;3.67;;;2.80;;
2480;SDS011;57396;48.742;9.128;2023-08-01T08:49:55;3.50;;;3.20;;
2480;SDS011;57396;48.742;9.128;2023-08-01T08:52:22;4.80;;;3.30;;
2480;SDS011;57396;48.742;9.128;2023-08-01T08:54:48;3.70;;;2.80;;
2480;SDS011;57396;48.742;9.128;2023-08-01T08:57:14;6.27;;;2.70;;
2480;SDS011;57396;48.742;9.128;2023-08-01T08:59:40;4.37;;;3.30;;
2480;SDS011;57396;48.742;9.128;2023-08-01T09:02:06;3.43;;;2.60;;
2480;SDS011;57396;48.742;9.128;2023-08-01T09:04:31;5.40;;;3.10;;
2480;SDS011;57396;48.742;9.128;2023-08-01T09:07:06;4.67;;;2.97;;
2480;SDS011;57396;48.742;9.128;2023-08-01T09:09:33;3.03;;;2.60;;
2480;SDS011;57396;48.742;9.128;2023-08-01T09:11:59;4.50;;;2.73;;
2480;SDS011;57396;48.742;9.128;2023-08-01T09:14:25;3.73;;;2.33;;
2480;SDS011;57396;48.742;9.128;2023-08-01T09:16:50;3.57;;;2.80;;
2480;SDS011;57396;48.742;9.128;2023-08-01T09:19:19;5.37;;;2.90;;
2480;SDS011;57396;48.742;9.128;2023-08-01T09:21:46;6.40;;;2.50;;
2480;SDS011;57396;48.742;9.128;2023-08-01T09:26:45;11.23;;;2.60;;
2480;SDS011;57396;48.742;9.128;2023-08-01T09:29:11;2.33;;;2.13;;
2480;SDS011;57396;48.742;9.128;2023-08-01T09:31:37;3.27;;;2.87;;
2480;SDS011;57396;48.742;9.128;2023-08-01T09:34:05;2.43;;;2.23;;
2480;SDS011;57396;48.742;9.128;2023-08-01T09:36:32;2.10;;;1.80;;
2480;SDS011;57396;48.742;9.128;2023-08-01T09:39:01;3.27;;;2.27;;
2480;SDS011;57396;48.742;9.128;2023-08-01T09:41:28;2.33;;;2.00;;
2480;SDS011;57396;48.742;9.128;2023-08-01T09:43:54;1.60;;;1.50;;
2480;SDS011;57396;48.742;9.128;2023-08-01T09:46:20;1.90;;;1.70;;
2480;SDS011;57396;48.742;9.128;2023-08-01T09:48:45;2.87;;;1.60;;
2480;SDS011;57396;48.742;9.128;2023-08-01T09:53:49;3.80;;;1.10;;
2480;SDS011;57396;48.742;9.128;2023-08-01T09:56:20;1.87;;;0.97;;
2480;SDS011;57396;48.742;9.128;2023-08-01T09:58:54;1.70;;;1.10;;
2480;SDS011;57396;48.742;9.128;2023-08-01T10:01:23;1.20;;;1.00;;
2480;SDS011;57396;48.742;9.128;2023-08-01T10:03:49;1.30;;;1.00;;
2480;SDS011;57396;48.742;9.128;2023-08-01T10:06:17;1.93;;;0.90;;
2480;SDS011;57396;48.742;9.128;2023-08-01T10:08:45;1.20;;;0.80;;
2480;SDS011;57396;48.742;9.128;2023-08-01T10:11:11;3.50;;;0.90;;
2480;SDS011;57396;48.742;9.128;2023-08-01T10:13:38;1.10;;;0.67;;
2480;SDS011;57396;48.742;9.128;2023-08-01T10:16:03;3.80;;;1.00;;
2480;SDS011;57396;48.742;9.128;2023-08-01T10:18:30;1.73;;;0.87;;
2480;SDS011;57396;48.742;9.128;2023-08-01T10:20:57;7.60;;;0.80;;
2480;SDS011;57396;48.742;9.128;2023-08-01T10:23:22;1.60;;;0.70;;
2480;SDS011;57396;48.742;9.128;2023-08-01T10:25:48;1.80;;;0.80;;
2480;SDS011;57396;48.742;9.128;2023-08-01T10:28:14;1.50;;;0.63;;
2480;SDS011;57396;48.742;9.128;2023-08-01T10:30:39;1.20;;;0.80;;
2480;SDS011;57396;48.742;9.128;2023-08-01T10:33:05;1.10;;;0.70;;
2480;SDS011;57396;48.742;9.128;2023-08-01T10:35:37;1.20;;;0.70;;
2480;SDS011;57396;48.742;9.128;2023-08-01T10:38:03;0.90;;;0.57;;
2480;SDS011;57396;48.742;9.128;2023-08-01T10:40:33;3.17;;;0.93;;
2480;SDS011;57396;48.742;9.128;2023-08-01T10:43:20;1.00;;;0.70;;
2480;SDS011;57396;48.742;9.128;2023-08-01T10:45:46;1.67;;;1.00;;
2480;SDS011;57396;48.742;9.128;2023-08-01T10:48:12;4.70;;;1.13;;
2480;SDS011;57396;48.742;9.128;2023-08-01T10:50:38;1.00;;;0.63;;
2480;SDS011;57396;48.742;9.128;2023-08-01T10:53:05;3.13;;;0.80;;
2480;SDS011;57396;48.742;9.128;2023-08-01T10:55:45;1.00;;;0.70;;
2480;SDS011;57396;48.742;9.128;2023-08-01T10:58:11;1.03;;;0.60;;
2480;SDS011;57396;48.742;9.128;2023-08-01T11:00:37;1.03;;;0.77;;
2480;SDS011;57396;48.742;9.128;2023-08-01T11:03:02;1.30;;;0.70;;
2480;SDS011;57396;48.742;9.128;2023-08-01T11:05:28;1.30;;;0.80;;
2480;SDS011;57396;48.742;9.128;2023-08-01T11:08:01;2.07;;;0.73;;
2480;SDS011;57396;48.742;9.128;2023-08-01T11:10:28;1.50;;;0.90;;
2480;SDS011;57396;48.742;9.128;2023-08-01T11:12:55;1.30;;;0.87;;
2480;SDS011;57396;48.742;9.128;2023-08-01T11:15:21;1.20;;;0.90;;
2480;SDS011;57396;48.742;9.128;2023-08-01T11:17:47;1.00;;;0.83;;
2480;SDS011;57396;48.742;9.128;2023-08-01T11:20:16;1.10;;;0.80;;
2480;SDS011;57396;48.742;9.128;2023-08-01T11:25:18;1.20;;;0.80;;
2480;SDS011;57396;48.742;9.128;2023-08-01T11:27:43;1.30;;;0.87;;
2480;SDS011;57396;48.742;9.128;2023-08-01T11:30:09;1.10;;;0.90;;
2480;SDS011;57396;48.742;9.128;2023-08-01T11:32:35;1.47;;;1.00;;
2480;SDS011;57396;48.742;9.128;2023-08-01T11:35:01;1.40;;;1.00;;
2480;SDS011;57396;48.742;9.128;2023-08-01T11:37:27;1.00;;;0.70;;
2480;SDS011;57396;48.742;9.128;2023-08-01T11:39:53;1.20;;;0.90;;
2480;SDS011;57396;48.742;9.128;2023-08-01T11:42:19;1.13;;;1.03;;
2480;SDS011;57396;48.742;9.128;2023-08-01T11:44:45;1.63;;;1.23;;
2480;SDS011;57396;48.742;9.128;2023-08-01T11:47:11;2.10;;;1.10;;
2480;SDS011;57396;48.742;9.128;2023-08-01T11:49:38;1.67;;;1.13;;
2480;SDS011;57396;48.742;9.128;2023-08-01T11:52:03;1.43;;;1.10;;
2480;SDS011;57396;48.742;9.128;2023-08-01T11:54:29;1.33;;;1.20;;
2480;SDS011;57396;48.742;9.128;2023-08-01T11:57:00;2.53;;;1.00;;
2480;SDS011;57396;48.742;9.128;2023-08-01T11:59:25;2.23;;;1.20;;
2480;SDS011;57396;48.742;9.128;2023-08-01T12:01:51;3.77;;;1.13;;
2480;SDS011;57396;48.742;9.128;2023-08-01T12:04:26;2.80;;;1.00;;
2480;SDS011;57396;48.742;9.128;2023-08-01T12:06:52;1.53;;;1.30;;
2480;SDS011;57396;48.742;9.128;2023-08-01T12:09:19;3.37;;;1.43;;
2480;SDS011;57396;48.742;9.128;2023-08-01T12:11:45;4.33;;;1.20;;
2480;SDS011;57396;48.742;9.128;2023-08-01T12:14:11;1.50;;;1.40;;
2480;SDS011;57396;48.742;9.128;2023-08-01T12:16:39;2.20;;;1.10;;
2480;SDS011;57396;48.742;9.128;2023-08-01T12:19:05;1.30;;;1.00;;
2480;SDS011;57396;48.742;9.128;2023-08-01T12:21:31;1.60;;;1.10;;
2480;SDS011;57396;48.742;9.128;2023-08-01T12:23:57;1.77;;;1.30;;
2480;SDS011;57396;48.742;9.128;2023-08-01T12:26:23;1.73;;;1.10;;
2480;SDS011;57396;48.742;9.128;2023-08-01T12:28:49;2.17;;;1.13;;
2480;SDS011;57396;48.742;9.128;2023-08-01T12:31:17;1.40;;;1.00;;
2480;SDS011;57396;48.742;9.128;2023-08-01T12:33:44;1.47;;;1.27;;
2480;SDS011;57396;48.742;9.128;2023-08-01T12:36:10;2.27;;;1.20;;
2480;SDS011;57396;48.742;9.128;2023-08-01T12:38:36;2.80;;;1.23;;
2480;SDS011;57396;48.742;9.128;2023-08-01T12:41:01;2.07;;;1.30;;
2480;SDS011;57396;48.742;9.128;2023-08-01T12:43:27;1.20;;;0.90;;
2480;SDS011;57396;48.742;9.128;2023-08-01T12:45:52;3.00;;;1.20;;
2480;SDS011;57396;48.742;9.128;2023-08-01T12:48:18;1.47;;;1.23;;
2480;SDS011;57396;48.742;9.128;2023-08-01T12:50:44;2.30;;;1.10;;
2480;SDS011;57396;48.742;9.128;2023-08-01T12:53:13;1.50;;;1.13;;
2480;SDS011;57396;48.742;9.128;2023-08-01T12:55:41;1.60;;;1.20;;
2480;SDS011;57396;48.742;9.128;2023-08-01T12:58:08;1.50;;;1.07;;
2480;SDS011;57396;48.742;9.128;2023-08-01T13:00:33;2.30;;;1.20;;
2480;SDS011;57396;48.742;9.128;2023-08-01T13:02:58;1.60;;;1.10;;
2480;SDS011;57396;48.742;9.128;2023-08-01T13:05:24;3.90;;;1.20;;
2480;SDS011;57396;48.742;9.128;2023-08-01T13:07:50;2.93;;;1.17;;
2480;SDS011;57396;48.742;9.128;2023-08-01T13:10:15;2.90;;;1.20;;
2480;SDS011;57396;48.742;9.128;2023-08-01T13:12:41;1.50;;;1.20;;
2480;SDS011;57396;48.742;9.128;2023-08-01T13:15:07;3.27;;;1.30;;
2480;SDS011;57396;48.742;9.128;2023-08-01T13:17:33;1.53;;;1.30;;
2480;SDS011;57396;48.742;9.128;2023-08-01T13:19:59;1.40;;;1.10;;
2480;SDS011;57396;48.742;9.128;2023-08-01T13:22:24;2.33;;;1.10;;
2480;SDS011;57396;48.742;9.128;2023-08-01T13:24:50;1.87;;;1.33;;
2480;SDS011;57396;48.742;9.128;2023-08-01T13:27:15;2.03;;;1.00;;
2480;SDS011;57396;48.742;9.128;2023-08-01T13:29:41;2.53;;;1.20;;
2480;SDS011;57396;48.742;9.128;2023-08-01T13:32:06;1.90;;;1.17;;
2480;SDS011;57396;48.742;9.128;2023-08-01T13:34:32;1.90;;;1.23;;
2480;SDS011;57396;48.742;9.128;2023-08-01T13:36:57;2.00;;;1.10;;
2480;SDS011;57396;48.742;9.128;2023-08-01T13:39:23;2.20;;;1.40;;
2480;SDS011;57396;48.742;9.128;2023-08-01T13:41:48;3.43;;;1.10;;
2480;SDS011;57396;48.742;9.128;2023-08-01T13:44:14;2.30;;;1.10;;
2480;SDS011;57396;48.742;9.128;2023-08-01T13:46:39;3.10;;;1.23;;
2480;SDS011;57396;48.742;9.128;2023-08-01T13:49:05;1.40;;;1.10;;
2480;SDS011;57396;48.742;9.128;2023-08-01T13:51:33;3.03;;;1.33;;
2480;SDS011;57396;48.742;9.128;2023-08-01T13:53:59;2.03;;;1.63;;
2480;SDS011;57396;48.742;9.128;2023-08-01T13:56:25;1.40;;;1.20;;
2480;SDS011;57396;48.742;9.128;2023-08-01T13:58:50;1.67;;;1.33;;
2480;SDS011;57396;48.742;9.128;2023-08-01T14:01:16;1.60;;;1.47;;
2480;SDS011;57396;48.742;9.128;2023-08-01T14:03:43;6.80;;;1.60;;
2480;SDS011;57396;48.742;9.128;2023-08-01T14:06:10;1.40;;;1.17;;
2480;SDS011;57396;48.742;9.128;2023-08-01T14:08:36;2.83;;;1.33;;
2480;SDS011;57396;48.742;9.128;2023-08-01T14:11:03;3.17;;;1.30;;
2480;SDS011;57396;48.742;9.128;2023-08-01T14:13:29;2.40;;;1.10;;
2480;SDS011;57396;48.742;9.128;2023-08-01T14:15:54;3.23;;;1.10;;
2480;SDS011;57396;48.742;9.128;2023-08-01T14:18:20;1.67;;;1.30;;
2480;SDS011;57396;48.742;9.128;2023-08-01T14:20:45;2.03;;;1.30;;
2480;SDS011;57396;48.742;9.128;2023-08-01T14:23:11;2.90;;;1.30;;
2480;SDS011;57396;48.742;9.128;2023-08-01T14:25:36;1.37;;;1.20;;
2480;SDS011;57396;48.742;9.128;2023-08-01T14:28:02;3.57;;;1.80;;
2480;SDS011;57396;48.742;9.128;2023-08-01T14:30:27;1.60;;;1.30;;
2480;SDS011;57396;48.742;9.128;2023-08-01T14:33:00;2.10;;;1.67;;
2480;SDS011;57396;48.742;9.128;2023-08-01T14:35:26;2.20;;;1.40;;
2480;SDS011;57396;48.742;9.128;2023-08-01T14:37:51;2.97;;;1.37;;
2480;SDS011;57396;48.742;9.128;2023-08-01T14:40:17;1.73;;;1.20;;
2480;SDS011;57396;48.742;9.128;2023-08-01T14:42:42;1.30;;;1.20;;
2480;SDS011;57396;48.742;9.128;2023-08-01T14:45:08;1.63;;;1.20;;
2480;SDS011;57396;48.742;9.128;2023-08-01T14:47:33;1.70;;;1.13;;
2480;SDS011;57396;48.742;9.128;2023-08-01T14:49:59;4.90;;;1.43;;
2480;SDS011;57396;48.742;9.128;2023-08-01T14:52:25;2.80;;;1.57;;
2480;SDS011;57396;48.742;9.128;2023-08-01T14:54:50;1.60;;;1.17;;
2480;SDS011;57396;48.742;9.128;2023-08-01T14:57:16;2.30;;;1.27;;
2480;SDS011;57396;48.742;9.128;2023-08-01T14:59:41;1.40;;;1.30;;